Time;durP1;ratioP1;P1;durP2;ratioP2;P2;SDS_P1;SDS_P2;PMS_P1;PMS_P2;Temp;Humidity;BMP_temperature;BMP_pressure;BME280_temperature;BME280_humidity;BME280_pressure;Samples;Min_cycle;Max_cycle;Signal;HPM_P1;HPM_P2
2022/06/01 00:00:49;;;;;;;16.77;3.95;;;20.30;99.90;;;;;;5052653;28;20079;-72
2022/06/01 00:03:53;;;;;;;11.10;3.30;;;20.20;99.90;;;;;;5053318;28;20052;-72
2022/06/01 00:06:58;;;;;;;15.57;3.90;;;20.10;99.90;;;;;;5052173;28;20056;-71
2022/06/01 00:10:02;;;;;;;13.18;3.90;;;20.00;99.90;;;;;;5051425;28;20586;-71
2022/06/01 00:13:06;;;;;;;10.90;3.60;;;20.00;99.90;;;;;;5053281;28;20044;-71
2022/06/01 00:16:10;;;;;;;10.85;3.15;;;19.90;99.90;;;;;;5052670;28;20124;-71
2022/06/01 00:19:14;;;;;;;13.70;3.97;;;19.80;99.90;;;;;;5052581;28;20395;-71
2022/06/01 00:22:18;;;;;;;11.85;3.40;;;19.80;99.90;;;;;;5052832;28;20041;-71
2022/06/01 00:25:24;;;;;;;9.93;3.00;;;19.70;99.90;;;;;;5052910;28;20036;-71
2022/06/01 00:28:29;;;;;;;13.15;3.25;;;19.60;99.90;;;;;;5052548;28;20040;-71
2022/06/01 00:31:33;;;;;;;8.30;3.08;;;19.60;99.90;;;;;;5052749;28;20044;-71
2022/06/01 00:34:38;;;;;;;7.20;2.80;;;19.60;99.90;;;;;;5032652;28;20056;-71
2022/06/01 00:37:43;;;;;;;14.27;4.03;;;19.50;99.90;;;;;;5045178;28;20530;-71
2022/06/01 00:40:48;;;;;;;17.27;4.60;;;19.40;99.90;;;;;;5052670;28;20120;-71
2022/06/01 00:43:52;;;;;;;10.50;3.53;;;19.40;99.90;;;;;;5032915;28;20044;-71
2022/06/01 00:46:57;;;;;;;13.15;4.22;;;19.30;99.90;;;;;;5047461;28;20403;-71
2022/06/01 00:50:17;;;;;;;10.75;3.63;;;19.20;99.90;;;;;;5051958;28;20052;-71
2022/06/01 00:53:25;;;;;;;13.55;3.63;;;19.10;99.90;;;;;;5052576;28;20483;-70
2022/06/01 00:56:37;;;;;;;12.60;4.15;;;19.10;99.90;;;;;;5052180;28;20043;-71
2022/06/01 00:59:44;;;;;;;18.77;3.50;;;19.00;99.90;;;;;;5052105;28;20040;-71
2022/06/01 01:02:52;;;;;;;12.57;2.88;;;18.90;99.90;;;;;;5052755;28;20052;-71
2022/06/01 01:06:08;;;;;;;13.50;3.35;;;18.80;99.90;;;;;;5052175;28;20496;-71
2022/06/01 01:09:13;;;;;;;9.80;3.58;;;18.80;99.90;;;;;;5051768;28;20095;-71
2022/06/01 01:12:18;;;;;;;10.57;2.97;;;18.70;99.90;;;;;;5052164;28;20423;-71
2022/06/01 01:15:26;;;;;;;15.50;3.13;;;18.70;99.90;;;;;;5031842;28;20056;-71
2022/06/01 01:18:36;;;;;;;7.45;2.97;;;18.70;99.90;;;;;;5049012;28;20052;-71
2022/06/01 01:21:51;;;;;;;17.25;3.10;;;18.70;99.90;;;;;;5051401;28;20044;-70
2022/06/01 01:25:32;;;;;;;11.38;3.38;;;18.60;99.90;;;;;;5052189;28;20490;-70
2022/06/01 01:28:36;;;;;;;11.52;3.20;;;18.60;99.90;;;;;;5031378;28;20049;-70
2022/06/01 01:31:43;;;;;;;11.90;2.83;;;18.60;99.90;;;;;;5046543;28;20060;-71
2022/06/01 01:34:47;;;;;;;8.43;2.72;;;18.50;99.90;;;;;;5051644;28;20056;-71
2022/06/01 01:37:52;;;;;;;10.25;3.17;;;18.50;99.90;;;;;;5051498;28;20048;-70
2022/06/01 01:41:16;;;;;;;13.95;3.95;;;18.50;99.90;;;;;;5050536;28;20060;-71
2022/06/01 01:44:26;;;;;;;12.88;3.00;;;18.50;99.90;;;;;;5051041;28;20402;-71
2022/06/01 01:47:30;;;;;;;11.65;2.90;;;18.50;99.90;;;;;;5051142;28;20509;-71
2022/06/01 01:50:34;;;;;;;10.38;3.08;;;18.40;99.90;;;;;;5050335;28;20048;-71
2022/06/01 01:53:39;;;;;;;13.82;3.33;;;18.40;99.90;;;;;;5050689;28;20056;-71
2022/06/01 01:56:50;;;;;;;10.30;2.67;;;18.30;99.90;;;;;;5051092;28;20052;-71
2022/06/01 02:00:06;;;;;;;15.05;2.70;;;18.20;99.90;;;;;;5031404;28;20040;-70
2022/06/01 02:03:25;;;;;;;10.52;2.92;;;18.10;99.90;;;;;;5046627;28;20052;-70
2022/06/01 02:06:43;;;;;;;12.40;2.80;;;18.10;99.90;;;;;;5050010;28;20048;-70
2022/06/01 02:13:10;;;;;;;7.60;2.55;;;18.00;99.90;;;;;;5031082;28;20045;-70
2022/06/01 02:16:14;;;;;;;6.75;2.25;;;18.00;99.90;;;;;;5043004;28;20043;-71
2022/06/01 02:19:24;;;;;;;11.85;2.63;;;17.90;99.90;;;;;;5050425;28;20044;-70
2022/06/01 02:22:29;;;;;;;13.75;2.35;;;17.90;99.90;;;;;;5030820;28;20049;-70
2022/06/01 02:25:33;;;;;;;11.05;3.25;;;17.90;99.90;;;;;;5046499;28;20051;-71
2022/06/01 02:28:41;;;;;;;11.23;2.10;;;17.90;99.90;;;;;;5050115;28;20051;-71
2022/06/01 02:31:46;;;;;;;7.43;1.88;;;17.90;99.90;;;;;;5050861;28;20052;-70
2022/06/01 02:34:51;;;;;;;7.82;1.85;;;17.80;99.90;;;;;;5049602;28;20052;-70
2022/06/01 02:37:57;;;;;;;11.18;2.35;;;17.80;99.90;;;;;;5049987;28;20056;-71
2022/06/01 02:41:02;;;;;;;7.90;2.20;;;17.90;99.90;;;;;;5050879;28;20044;-70
2022/06/01 02:44:06;;;;;;;6.88;2.13;;;17.80;99.90;;;;;;5047039;28;20044;-71
2022/06/01 02:47:11;;;;;;;9.43;3.13;;;17.90;99.90;;;;;;5049707;28;20407;-71
2022/06/01 02:50:19;;;;;;;7.50;1.95;;;17.90;99.90;;;;;;5050068;28;20048;-71
2022/06/01 02:53:23;;;;;;;5.45;1.67;;;17.80;99.90;;;;;;5049556;28;20040;-71
2022/06/01 02:56:28;;;;;;;3.95;1.77;;;17.80;99.90;;;;;;5049715;28;20047;-71
2022/06/01 02:59:33;;;;;;;7.65;1.92;;;17.80;99.90;;;;;;5050140;28;20044;-71
2022/06/01 03:02:40;;;;;;;3.50;1.75;;;17.80;99.90;;;;;;5030606;28;20053;-71
2022/06/01 03:05:45;;;;;;;9.45;2.17;;;17.70;99.90;;;;;;5044999;28;20048;-71
2022/06/01 03:08:49;;;;;;;7.70;2.42;;;17.60;99.90;;;;;;5049514;28;20530;-71
2022/06/01 03:11:54;;;;;;;16.17;4.78;;;17.50;99.90;;;;;;5050173;28;20040;-71
2022/06/01 03:14:57;;;;;;;15.73;4.00;;;17.40;99.90;;;;;;5049549;28;20064;-71
2022/06/01 03:18:02;;;;;;;9.98;3.38;;;17.30;99.90;;;;;;5049273;28;20056;-71
2022/06/01 03:21:06;;;;;;;6.68;2.70;;;17.10;99.90;;;;;;5049647;28;20498;-71
2022/06/01 03:24:10;;;;;;;11.32;3.05;;;17.00;99.90;;;;;;5049315;28;20052;-71
2022/06/01 03:27:15;;;;;;;14.77;3.75;;;17.00;99.90;;;;;;5049402;28;20048;-71
2022/06/01 03:30:20;;;;;;;16.58;3.42;;;16.90;99.90;;;;;;5050445;28;20048;-71
2022/06/01 03:33:24;;;;;;;12.63;3.22;;;16.90;99.90;;;;;;5049912;28;20055;-71
2022/06/01 03:36:28;;;;;;;19.00;4.10;;;16.90;99.90;;;;;;5049425;28;20036;-71
2022/06/01 03:39:32;;;;;;;6.43;3.88;;;16.80;99.90;;;;;;5050091;28;20039;-71
2022/06/01 03:42:37;;;;;;;10.45;3.42;;;16.80;99.90;;;;;;5049453;28;20032;-71
2022/06/01 03:45:56;;;;;;;7.32;3.38;;;16.80;99.90;;;;;;5049249;28;20048;-71
2022/06/01 03:49:00;;;;;;;11.65;3.53;;;16.80;99.90;;;;;;5049559;28;20501;-71
2022/06/01 03:52:05;;;;;;;9.43;3.65;;;16.70;99.90;;;;;;5050008;28;20048;-71
2022/06/01 03:55:10;;;;;;;11.32;3.50;;;16.80;99.90;;;;;;5049365;28;20040;-71
2022/06/01 03:58:20;;;;;;;10.50;3.63;;;16.70;99.90;;;;;;5049147;28;20044;-71
2022/06/01 04:01:24;;;;;;;10.32;4.40;;;16.60;99.90;;;;;;5029978;28;20052;-71
2022/06/01 04:04:28;;;;;;;10.57;4.18;;;16.60;99.90;;;;;;5051372;28;20052;-72
2022/06/01 04:07:32;;;;;;;9.88;4.30;;;16.50;99.90;;;;;;5052465;28;20071;-71
2022/06/01 04:10:40;;;;;;;17.20;4.72;;;16.60;99.90;;;;;;5053604;28;20044;-71
2022/06/01 04:13:44;;;;;;;13.07;4.22;;;16.60;99.90;;;;;;5053116;28;20044;-71
2022/06/01 04:16:48;;;;;;;12.13;4.70;;;16.60;99.90;;;;;;5052692;28;20391;-71
2022/06/01 04:19:52;;;;;;;15.02;4.25;;;16.70;99.90;;;;;;5052899;28;20068;-71
2022/06/01 04:23:00;;;;;;;9.30;4.05;;;16.70;99.90;;;;;;5051449;28;20052;-71
2022/06/01 04:26:03;;;;;;;13.35;4.40;;;16.70;99.90;;;;;;5052320;28;20044;-71
2022/06/01 04:29:07;;;;;;;18.90;4.68;;;16.80;99.90;;;;;;5052115;28;20047;-71
2022/06/01 04:32:15;;;;;;;11.85;4.38;;;18.70;99.90;;;;;;5032644;28;20043;-71
2022/06/01 04:35:21;;;;;;;14.63;4.38;;;21.10;99.90;;;;;;5047529;28;20040;-71
2022/06/01 04:38:26;;;;;;;9.55;3.65;;;22.90;99.90;;;;;;5052460;28;20047;-71
2022/06/01 04:41:31;;;;;;;9.05;3.40;;;24.40;99.90;;;;;;5052947;28;20040;-72
2022/06/01 04:44:35;;;;;;;11.00;3.35;;;25.70;99.90;;;;;;5052272;28;20055;-71
2022/06/01 04:47:39;;;;;;;10.07;3.40;;;26.30;99.90;;;;;;5052026;28;20290;-72
2022/06/01 04:50:43;;;;;;;9.88;3.13;;;26.50;99.90;;;;;;5052726;28;20044;-71
2022/06/01 04:53:47;;;;;;;11.20;3.22;;;26.80;99.90;;;;;;5052315;28;20032;-72
2022/06/01 04:56:51;;;;;;;12.70;3.13;;;27.00;99.90;;;;;;5051846;28;20431;-72
2022/06/01 04:59:54;;;;;;;9.65;2.70;;;27.20;99.90;;;;;;5052688;28;20039;-71
2022/06/01 05:02:59;;;;;;;8.32;2.70;;;27.50;99.40;;;;;;5049329;28;20056;-71
2022/06/01 05:06:03;;;;;;;8.70;2.60;;;27.80;99.10;;;;;;5050748;28;20048;-71
2022/06/01 05:09:08;;;;;;;7.35;2.97;;;28.10;98.40;;;;;;5051849;28;20513;-71
2022/06/01 05:12:12;;;;;;;8.20;3.17;;;28.60;97.80;;;;;;5050459;28;20052;-72
2022/06/01 05:15:17;;;;;;;8.32;2.63;;;28.60;97.80;;;;;;5050281;28;20044;-72
2022/06/01 05:18:22;;;;;;;11.68;3.00;;;28.80;97.70;;;;;;5051513;28;20044;-71
2022/06/01 05:21:27;;;;;;;12.07;3.33;;;29.40;97.30;;;;;;5052044;28;20060;-71
2022/06/01 05:24:31;;;;;;;8.75;2.80;;;29.60;97.40;;;;;;5051499;28;20072;-71
2022/06/01 05:27:37;;;;;;;13.80;2.95;;;30.30;96.50;;;;;;5051225;28;20052;-71
2022/06/01 05:30:42;;;;;;;8.40;2.70;;;30.50;96.10;;;;;;5051911;28;20048;-72
2022/06/01 05:33:46;;;;;;;7.68;2.90;;;30.20;96.40;;;;;;5051396;28;20043;-71
2022/06/01 05:36:50;;;;;;;8.73;3.00;;;30.40;96.80;;;;;;5050466;28;20040;-71
2022/06/01 05:39:54;;;;;;;9.20;2.70;;;30.70;96.40;;;;;;5032039;28;20515;-71
2022/06/01 05:42:58;;;;;;;8.80;3.15;;;30.80;95.90;;;;;;5050142;28;20040;-72
2022/06/01 05:46:03;;;;;;;9.57;3.10;;;30.90;95.70;;;;;;5050969;28;20052;-72
2022/06/01 05:49:07;;;;;;;13.13;2.90;;;29.50;96.00;;;;;;5051367;28;20644;-72
2022/06/01 05:52:11;;;;;;;6.63;2.60;;;29.00;96.40;;;;;;5051248;28;20044;-72
2022/06/01 05:55:16;;;;;;;12.23;3.08;;;28.50;96.90;;;;;;5050260;28;20514;-72
2022/06/01 05:58:24;;;;;;;7.43;2.90;;;27.90;97.60;;;;;;5050905;28;20071;-72
2022/06/01 06:01:28;;;;;;;10.07;2.53;;;28.10;97.70;;;;;;5050291;28;20090;-72
2022/06/01 06:04:32;;;;;;;12.25;3.40;;;28.00;97.70;;;;;;5050567;28;20047;-72
2022/06/01 06:07:38;;;;;;;9.32;2.85;;;27.50;97.90;;;;;;5050362;28;20048;-71
2022/06/01 06:10:43;;;;;;;6.55;2.72;;;27.90;97.40;;;;;;5050456;28;20048;-72
2022/06/01 06:13:47;;;;;;;9.48;3.45;;;28.80;96.90;;;;;;5050649;28;20032;-71
2022/06/01 06:16:51;;;;;;;15.05;3.17;;;29.30;96.80;;;;;;5050182;28;20056;-71
2022/06/01 06:19:55;;;;;;;23.42;6.25;;;28.30;96.40;;;;;;5029865;28;20044;-72
2022/06/01 06:23:00;;;;;;;29.80;7.13;;;27.60;98.00;;;;;;5046491;28;20111;-72
2022/06/01 06:26:06;;;;;;;13.00;5.50;;;28.70;97.80;;;;;;5050028;28;20470;-72
2022/06/01 06:29:13;;;;;;;12.25;5.47;;;29.20;96.70;;;;;;5049233;28;20047;-72
2022/06/01 06:32:18;;;;;;;12.55;5.07;;;29.80;96.70;;;;;;5023312;28;20052;-72
2022/06/01 06:35:23;;;;;;;12.77;4.47;;;29.70;96.70;;;;;;5045634;28;20695;-72
2022/06/01 06:38:29;;;;;;;13.95;5.00;;;30.20;96.20;;;;;;5045146;28;20055;-72
2022/06/01 06:41:33;;;;;;;14.85;5.22;;;31.20;95.40;;;;;;5049274;28;20478;-72
2022/06/01 06:44:37;;;;;;;12.00;4.40;;;30.00;95.00;;;;;;5041963;28;20052;-72
2022/06/01 06:47:42;;;;;;;10.65;4.22;;;30.30;95.50;;;;;;5045031;28;20048;-72
2022/06/01 06:50:46;;;;;;;9.88;3.95;;;31.30;95.10;;;;;;5050373;28;20047;-72
2022/06/01 06:53:51;;;;;;;11.80;3.60;;;32.00;94.00;;;;;;5050326;28;20040;-72
2022/06/01 06:56:55;;;;;;;15.45;4.00;;;32.30;93.50;;;;;;5049457;28;20043;-72
2022/06/01 06:59:59;;;;;;;9.95;3.63;;;32.40;93.30;;;;;;5050755;28;20486;-72
2022/06/01 07:03:05;;;;;;;9.25;3.45;;;32.20;93.10;;;;;;5049469;28;20043;-72
2022/06/01 07:06:09;;;;;;;9.52;3.05;;;32.50;92.90;;;;;;5049050;28;20040;-72
2022/06/01 07:09:13;;;;;;;6.97;3.35;;;33.00;92.00;;;;;;5048286;28;20063;-72
2022/06/01 07:12:18;;;;;;;13.27;3.47;;;32.80;91.70;;;;;;5044463;28;20043;-72
2022/06/01 07:15:22;;;;;;;7.85;3.20;;;33.30;91.40;;;;;;5046291;28;20052;-72
2022/06/01 07:18:27;;;;;;;10.70;3.80;;;31.30;92.00;;;;;;5046586;28;20044;-73
2022/06/01 07:21:32;;;;;;;10.23;3.67;;;30.30;92.90;;;;;;5047163;28;20056;-72
2022/06/01 07:24:36;;;;;;;10.73;3.17;;;28.70;93.70;;;;;;5041902;28;20064;-73
2022/06/01 07:27:42;;;;;;;12.00;3.15;;;30.40;93.60;;;;;;5042564;28;20048;-72
2022/06/01 07:30:45;;;;;;;8.80;2.90;;;30.40;92.70;;;;;;5044210;28;20040;-73
2022/06/01 07:33:53;;;;;;;10.27;3.60;;;30.50;93.10;;;;;;5047280;28;20403;-73
2022/06/01 07:43:05;;;;;;;7.80;3.05;;;30.70;92.40;;;;;;5040353;28;20048;-72
2022/06/01 07:43:44;;;;;;;7.95;2.70;;;33.10;90.60;;;;;;5048602;28;20047;-73
2022/06/01 07:46:48;;;;;;;8.95;2.47;;;33.50;90.90;;;;;;5046964;28;20044;-73
2022/06/01 07:49:52;;;;;;;11.48;3.25;;;32.70;90.80;;;;;;5050637;28;20058;-72
2022/06/01 07:52:57;;;;;;;9.93;2.70;;;33.70;90.60;;;;;;5050116;28;20040;-73
2022/06/01 07:56:02;;;;;;;12.05;2.63;;;35.20;89.20;;;;;;5057841;28;20052;-73
2022/06/01 07:59:07;;;;;;;7.63;2.58;;;35.60;86.60;;;;;;5050083;28;20052;-72
2022/06/01 08:02:11;;;;;;;8.00;2.22;;;32.70;87.50;;;;;;5005489;28;1187831;-72
2022/06/01 08:05:19;;;;;;;8.25;3.15;;;33.30;88.20;;;;;;5048328;28;20048;-72
2022/06/01 08:08:23;;;;;;;8.02;2.88;;;32.60;88.80;;;;;;5047055;28;20104;-73
2022/06/01 08:14:51;;;;;;;10.48;2.40;;;33.00;90.50;;;;;;5044298;28;20040;-72
2022/06/01 08:17:57;;;;;;;7.97;2.15;;;35.20;86.00;;;;;;5046629;28;20044;-73
2022/06/01 08:21:01;;;;;;;7.38;2.70;;;32.90;85.90;;;;;;5047199;28;20036;-73
2022/06/01 08:24:07;;;;;;;7.40;2.22;;;33.70;84.40;;;;;;5049632;28;20043;-74
2022/06/01 08:27:11;;;;;;;11.30;2.70;;;34.40;85.90;;;;;;5051182;28;20707;-73
2022/06/01 08:30:19;;;;;;;6.45;1.88;;;36.90;84.10;;;;;;5045731;28;20048;-73
2022/06/01 08:33:23;;;;;;;6.90;2.25;;;38.20;79.10;;;;;;5044817;28;20387;-73
2022/06/01 08:36:29;;;;;;;6.88;1.83;;;39.00;76.00;;;;;;5047655;28;20036;-73
2022/06/01 08:39:34;;;;;;;5.78;1.55;;;38.00;75.80;;;;;;5049570;28;20498;-74
2022/06/01 08:42:41;;;;;;;7.47;1.92;;;37.60;74.60;;;;;;5048612;28;20044;-73
2022/06/01 08:45:51;;;;;;;7.95;1.77;;;37.10;74.70;;;;;;5046252;28;20037;-72
2022/06/01 08:49:01;;;;;;;4.88;1.70;;;37.80;76.40;;;;;;5044188;28;20071;-72
2022/06/01 08:52:05;;;;;;;2.63;1.30;;;36.10;74.30;;;;;;5049932;28;20040;-73
2022/06/01 08:55:10;;;;;;;6.38;1.60;;;38.10;74.90;;;;;;5048861;28;20359;-73
2022/06/01 08:58:16;;;;;;;5.63;2.20;;;39.90;71.30;;;;;;5042887;28;20056;-74
2022/06/01 09:01:53;;;;;;;4.15;1.55;;;36.70;71.60;;;;;;5042327;28;20064;-73
2022/06/01 09:05:23;;;;;;;7.85;1.60;;;39.10;71.40;;;;;;5013745;28;20056;-73
2022/06/01 09:08:42;;;;;;;7.25;1.88;;;40.50;70.70;;;;;;5046389;28;20418;-73
2022/06/01 09:11:47;;;;;;;3.23;1.40;;;37.50;69.30;;;;;;5039295;28;20044;-73
2022/06/01 09:14:57;;;;;;;7.18;1.88;;;40.10;69.40;;;;;;5041725;28;20064;-73
2022/06/01 09:18:02;;;;;;;6.50;1.60;;;40.80;66.90;;;;;;5047163;28;20053;-72
2022/06/01 09:24:33;;;;;;;5.45;2.03;;;37.80;68.20;;;;;;5040246;28;20056;-71
2022/06/01 09:27:43;;;;;;;4.10;1.47;;;40.80;66.70;;;;;;5042453;28;20044;-74
2022/06/01 09:31:02;;;;;;;6.20;1.83;;;42.50;65.00;;;;;;5050391;28;20036;-74
2022/06/01 09:34:35;;;;;;;7.68;1.70;;;40.50;64.30;;;;;;5043589;28;20040;-73
2022/06/01 09:37:45;;;;;;;3.97;1.30;;;38.10;63.60;;;;;;5041880;28;20040;-71
2022/06/01 09:41:03;;;;;;;6.10;1.45;;;41.60;62.60;;;;;;5047772;28;20048;-73
2022/06/01 09:44:18;;;;;;;4.72;1.50;;;44.70;61.00;;;;;;5048403;28;20498;-71
2022/06/01 09:47:43;;;;;;;4.78;1.70;;;46.10;59.60;;;;;;5044605;28;20056;-74
2022/06/01 09:51:00;;;;;;;5.07;1.50;;;46.90;59.80;;;;;;5041074;28;20044;-74
2022/06/01 09:54:12;;;;;;;6.20;1.42;;;44.80;59.90;;;;;;5049863;28;20048;-74
2022/06/01 09:57:18;;;;;;;5.28;1.30;;;42.10;60.00;;;;;;5046762;28;20367;-74
2022/06/01 10:07:28;;;;;;;6.53;1.35;;;42.70;61.30;;;;;;5043732;28;20036;-73
2022/06/01 10:10:32;;;;;;;4.70;1.55;;;45.30;60.20;;;;;;5041408;28;20048;-73
2022/06/01 10:13:53;;;;;;;6.78;1.27;;;46.60;58.10;;;;;;5045947;28;20059;-71
2022/06/01 10:17:16;;;;;;;6.72;1.50;;;47.40;56.70;;;;;;5042633;28;20044;-72
2022/06/01 10:20:25;;;;;;;5.80;1.58;;;45.10;59.00;;;;;;5044335;28;20044;-73
2022/06/01 10:23:49;;;;;;;4.40;1.58;;;44.30;58.40;;;;;;5048164;28;20403;-73
2022/06/01 10:26:58;;;;;;;6.30;1.75;;;44.60;58.80;;;;;;5047680;28;20044;-74
2022/06/01 10:30:06;;;;;;;5.60;1.90;;;43.30;58.80;;;;;;5040104;28;20052;-72
2022/06/01 10:33:33;;;;;;;8.63;1.80;;;38.90;62.80;;;;;;5043716;28;20099;-73
2022/06/01 10:36:57;;;;;;;6.93;1.77;;;41.40;61.70;;;;;;5044307;28;20044;-73
2022/06/01 10:40:11;;;;;;;5.68;1.85;;;35.30;65.30;;;;;;5038967;28;20056;-74
2022/06/01 10:43:30;;;;;;;5.88;1.70;;;35.30;67.90;;;;;;5049833;28;20463;-74
2022/06/01 10:46:44;;;;;;;5.13;1.85;;;37.70;64.50;;;;;;5038417;28;20040;-74
2022/06/01 10:49:58;;;;;;;3.55;1.70;;;40.20;62.90;;;;;;5045364;28;20419;-74
2022/06/01 10:53:32;;;;;;;8.32;2.30;;;38.90;63.40;;;;;;5041078;28;20627;-75
2022/06/01 10:56:37;;;;;;;5.70;1.95;;;36.50;64.40;;;;;;5038748;28;20044;-74
2022/06/01 10:59:43;;;;;;;8.25;2.25;;;37.40;65.00;;;;;;5041453;28;20048;-75
2022/06/01 11:02:56;;;;;;;10.18;2.30;;;39.60;64.10;;;;;;5048271;28;20049;-75
2022/06/01 11:06:06;;;;;;;8.13;1.90;;;38.90;63.70;;;;;;5048647;28;20040;-72
2022/06/01 11:09:39;;;;;;;6.40;1.92;;;38.80;63.30;;;;;;5049388;28;20040;-73
2022/06/01 11:12:53;;;;;;;6.13;2.00;;;38.30;62.90;;;;;;5044308;28;20055;-74
2022/06/01 11:16:23;;;;;;;9.13;2.05;;;39.10;64.00;;;;;;5045085;28;20044;-73
2022/06/01 11:19:30;;;;;;;;;;;40.80;63.90;;;;;;5049018;28;20494;-73
2022/06/01 11:22:51;;;;;;;5.78;1.80;;;42.00;62.10;;;;;;5051401;28;20374;-73
2022/06/01 11:26:02;;;;;;;7.32;2.20;;;41.80;62.50;;;;;;5049444;28;20395;-73
2022/06/01 11:29:17;;;;;;;7.03;1.92;;;40.30;62.90;;;;;;5052127;28;20032;-72
2022/06/01 11:32:52;;;;;;;6.30;2.00;;;40.90;63.30;;;;;;5050878;28;20043;-73
2022/06/01 11:36:06;;;;;;;8.65;2.13;;;41.60;62.60;;;;;;5044813;28;20052;-74
2022/06/01 11:39:47;;;;;;;5.78;1.65;;;41.60;63.50;;;;;;5049929;28;20044;-74
2022/06/01 11:42:57;;;;;;;4.93;2.22;;;40.20;65.00;;;;;;5044449;28;20064;-74
2022/06/01 11:46:03;;;;;;;;;;;40.60;64.10;;;;;;5053556;28;20056;-74
2022/06/01 11:49:24;;;;;;;4.82;1.90;;;40.90;64.70;;;;;;5051415;28;20405;-72
2022/06/01 11:52:31;;;;;;;6.95;2.17;;;41.60;64.40;;;;;;5053696;28;20108;-72
2022/06/01 11:55:36;;;;;;;5.72;2.10;;;40.80;63.40;;;;;;5053202;28;20522;-72
2022/06/01 11:58:47;;;;;;;5.00;1.88;;;38.80;63.70;;;;;;5052791;28;20052;-72
2022/06/01 12:01:59;;;;;;;;;;;39.60;63.80;;;;;;5042489;28;20309;-72
2022/06/01 12:05:08;;;;;;;6.63;2.30;;;40.20;62.70;;;;;;5044519;28;19916;-72
2022/06/01 12:08:22;;;;;;;4.63;2.20;;;39.10;63.40;;;;;;5052431;28;20052;-71
2022/06/01 12:11:41;;;;;;;8.85;2.03;;;39.00;64.30;;;;;;5049267;28;20040;-72
2022/06/01 12:15:29;;;;;;;8.75;1.88;;;38.90;63.10;;;;;;5049849;28;20048;-72
2022/06/01 12:18:35;;;;;;;3.67;2.13;;;38.50;64.20;;;;;;5033133;28;20040;-72
2022/06/01 12:21:43;;;;;;;6.18;2.58;;;38.90;63.30;;;;;;5048662;28;20037;-71
2022/06/01 12:28:35;;;;;;;7.82;1.80;;;39.30;63.20;;;;;;5044137;28;20387;-72
2022/06/01 12:31:57;;;;;;;6.43;1.50;;;38.20;62.80;;;;;;5047500;28;20048;-71
2022/06/01 12:35:10;;;;;;;10.25;1.90;;;37.30;64.50;;;;;;5049933;28;20048;-72
2022/06/01 12:38:34;;;;;;;4.60;1.60;;;36.30;63.10;;;;;;5048172;28;20047;-71
2022/06/01 12:41:41;;;;;;;3.78;1.50;;;35.90;64.30;;;;;;5045946;28;20363;-71
2022/06/01 12:44:50;;;;;;;5.68;2.20;;;34.80;63.40;;;;;;5049898;28;20047;-71
2022/06/01 12:48:01;;;;;;;5.00;1.70;;;33.70;65.90;;;;;;5050118;28;20797;-72
2022/06/01 12:51:07;;;;;;;7.95;1.80;;;34.60;66.90;;;;;;5051265;28;20060;-72
2022/06/01 12:54:23;;;;;;;6.20;1.70;;;34.80;65.50;;;;;;5043911;28;20044;-72
2022/06/01 12:57:33;;;;;;;5.78;1.80;;;33.30;66.20;;;;;;5048968;28;20413;-71
2022/06/01 13:00:45;;;;;;;8.55;2.13;;;33.60;65.60;;;;;;5049129;28;20040;-71
2022/06/01 13:03:55;;;;;;;7.95;1.90;;;32.80;67.40;;;;;;5047674;28;20035;-71
2022/06/01 13:07:00;;;;;;;9.13;2.30;;;33.40;69.80;;;;;;5047691;28;20061;-72
2022/06/01 13:10:09;;;;;;;7.70;1.60;;;34.40;70.30;;;;;;5043305;28;20391;-71
2022/06/01 13:13:23;;;;;;;8.50;2.10;;;35.10;68.20;;;;;;5047082;28;20230;-72
2022/06/01 13:16:47;;;;;;;9.55;2.33;;;34.80;66.40;;;;;;5045860;28;20573;-71
2022/06/01 13:19:59;;;;;;;11.45;2.80;;;35.10;68.90;;;;;;5048639;28;20063;-71
2022/06/01 13:23:24;;;;;;;7.68;2.25;;;35.60;67.90;;;;;;5048982;28;20072;-72
2022/06/01 13:26:37;;;;;;;4.28;2.08;;;35.90;65.80;;;;;;5048942;28;20067;-71
2022/06/01 13:29:44;;;;;;;10.82;2.30;;;34.20;68.50;;;;;;5048693;28;20383;-72
2022/06/01 13:32:51;;;;;;;7.60;2.40;;;34.10;67.80;;;;;;5046957;28;20048;-72
2022/06/01 13:35:57;;;;;;;7.60;2.28;;;34.10;69.80;;;;;;5049955;28;20052;-71
2022/06/01 13:39:10;;;;;;;5.50;2.28;;;31.80;70.90;;;;;;5047875;28;20081;-72
2022/06/01 13:42:51;;;;;;;6.20;2.25;;;31.00;71.90;;;;;;5049377;28;20048;-72
2022/06/01 13:46:06;;;;;;;8.18;2.00;;;30.70;72.10;;;;;;5043443;28;20060;-72
2022/06/01 13:49:14;;;;;;;6.70;2.30;;;31.90;72.50;;;;;;5048175;28;20044;-72
2022/06/01 13:52:18;;;;;;;9.95;2.00;;;32.70;71.90;;;;;;5043853;28;20490;-72
2022/06/01 13:55:28;;;;;;;6.40;1.95;;;33.30;72.50;;;;;;5050156;28;20052;-71
2022/06/01 13:58:51;;;;;;;3.13;1.50;;;33.40;69.70;;;;;;5050391;28;20387;-72
2022/06/01 14:02:01;;;;;;;8.60;2.28;;;33.10;71.60;;;;;;5050159;28;20067;-72
2022/06/01 14:05:11;;;;;;;8.30;1.90;;;32.80;71.80;;;;;;5044085;28;20051;-71
2022/06/01 14:08:32;;;;;;;4.07;2.22;;;32.40;71.20;;;;;;5049422;28;20388;-71
2022/06/01 14:11:36;;;;;;;8.47;2.13;;;32.60;71.40;;;;;;5050064;28;20048;-71
2022/06/01 14:14:44;;;;;;;5.78;2.05;;;32.50;72.00;;;;;;5049557;28;20055;-71
2022/06/01 14:17:48;;;;;;;10.82;2.22;;;32.80;72.90;;;;;;5045273;28;20120;-72
2022/06/01 14:20:52;;;;;;;14.13;3.00;;;33.20;73.30;;;;;;5050356;28;20067;-73
2022/06/01 14:23:56;;;;;;;7.88;2.08;;;33.30;71.10;;;;;;5043252;28;20500;-74
2022/06/01 14:30:22;;;;;;;6.90;2.33;;;32.50;73.60;;;;;;5045864;28;20382;-72
2022/06/01 14:33:27;;;;;;;6.70;2.97;;;31.60;73.80;;;;;;5048477;28;20063;-72
2022/06/01 14:36:31;;;;;;;7.15;2.75;;;31.20;74.50;;;;;;5044704;28;20628;-74
2022/06/01 14:39:36;;;;;;;5.35;2.10;;;31.60;73.50;;;;;;5049042;28;20044;-71
2022/06/01 14:42:40;;;;;;;5.85;2.33;;;31.40;73.00;;;;;;5048667;28;20047;-72
2022/06/01 14:45:46;;;;;;;7.55;2.50;;;31.60;74.40;;;;;;5048913;28;20494;-74
2022/06/01 14:48:50;;;;;;;4.63;2.03;;;31.20;72.70;;;;;;5045349;28;20505;-74
2022/06/01 14:51:58;;;;;;;5.25;2.17;;;31.10;74.40;;;;;;5047909;28;20043;-74
2022/06/01 14:55:03;;;;;;;6.43;1.90;;;31.50;77.10;;;;;;5047220;28;20483;-74
2022/06/01 14:58:07;;;;;;;4.32;2.15;;;31.40;73.20;;;;;;5044163;28;20048;-74
2022/06/01 15:01:20;;;;;;;5.20;2.15;;;31.50;72.20;;;;;;5034734;28;20048;-73
2022/06/01 15:04:33;;;;;;;5.38;2.22;;;31.70;74.80;;;;;;5050437;28;20040;-73
2022/06/01 15:07:37;;;;;;;4.38;2.20;;;32.00;75.20;;;;;;5044739;28;20044;-72
2022/06/01 15:10:41;;;;;;;5.88;2.20;;;32.20;74.30;;;;;;5049621;28;20514;-72
2022/06/01 15:13:45;;;;;;;4.70;2.15;;;32.30;74.60;;;;;;5049977;28;20040;-73
2022/06/01 15:16:55;;;;;;;5.05;2.35;;;32.40;74.80;;;;;;5046544;28;20051;-73
2022/06/01 15:19:59;;;;;;;6.23;2.50;;;32.30;73.30;;;;;;5047356;28;20043;-73
2022/06/01 15:23:04;;;;;;;9.13;2.78;;;32.20;73.20;;;;;;5048485;28;20048;-73
2022/06/01 15:26:11;;;;;;;7.75;2.15;;;32.10;74.30;;;;;;5050057;28;20403;-73
2022/06/01 15:42:34;;;;;;;8.60;2.30;;;31.50;76.90;;;;;;5042696;28;20036;-72
2022/06/01 15:45:40;;;;;;;5.15;2.22;;;31.50;77.30;;;;;;5049682;28;20047;-72
2022/06/01 15:48:44;;;;;;;10.63;2.22;;;31.40;77.50;;;;;;5030163;28;20045;-72
2022/06/01 15:51:58;;;;;;;7.50;2.70;;;31.50;78.60;;;;;;5044402;28;20044;-73
2022/06/01 15:55:03;;;;;;;11.18;2.70;;;31.30;76.90;;;;;;5039247;28;20037;-73
2022/06/01 15:58:07;;;;;;;7.25;2.28;;;31.20;76.60;;;;;;5044990;28;20056;-72
2022/06/01 16:01:11;;;;;;;11.32;2.65;;;31.20;77.20;;;;;;5051876;28;20048;-73
2022/06/01 16:04:16;;;;;;;7.00;2.17;;;31.10;77.30;;;;;;5052940;28;20055;-72
2022/06/01 16:07:21;;;;;;;5.55;2.42;;;30.90;77.80;;;;;;5052342;28;20048;-72
2022/06/01 16:10:26;;;;;;;3.85;2.10;;;30.80;78.50;;;;;;5048420;28;20040;-72
2022/06/01 16:13:30;;;;;;;13.52;2.40;;;30.70;78.50;;;;;;5051974;28;20036;-73
2022/06/01 16:16:36;;;;;;;6.85;3.15;;;30.60;79.40;;;;;;5050913;28;20048;-73
2022/06/01 16:19:41;;;;;;;7.20;2.78;;;30.50;78.30;;;;;;5050612;28;20032;-72
2022/06/01 16:22:45;;;;;;;7.63;2.83;;;30.50;79.20;;;;;;5050906;28;20060;-73
2022/06/01 16:25:49;;;;;;;9.95;2.90;;;30.10;79.70;;;;;;5053006;28;20665;-73
2022/06/01 16:28:55;;;;;;;6.28;2.50;;;30.10;80.60;;;;;;5032050;28;20396;-72
2022/06/01 16:31:59;;;;;;;8.15;2.78;;;30.10;81.00;;;;;;5046633;28;20044;-73
2022/06/01 16:35:08;;;;;;;5.75;2.45;;;30.20;80.50;;;;;;5051809;28;20515;-72
2022/06/01 16:38:12;;;;;;;9.32;2.90;;;30.10;81.90;;;;;;5051911;28;20032;-72
2022/06/01 16:41:16;;;;;;;7.50;2.83;;;30.00;81.40;;;;;;5051286;28;20210;-73
2022/06/01 16:44:23;;;;;;;7.68;3.10;;;29.90;81.90;;;;;;5051510;28;20056;-72
2022/06/01 16:47:27;;;;;;;10.45;3.05;;;29.90;83.00;;;;;;5031910;28;20044;-72
2022/06/01 16:50:32;;;;;;;6.63;2.78;;;29.80;82.70;;;;;;5050618;28;20041;-73
2022/06/01 16:53:35;;;;;;;6.88;2.83;;;29.80;83.00;;;;;;5051117;28;20056;-72
2022/06/01 16:56:40;;;;;;;11.98;2.90;;;29.70;82.60;;;;;;5051464;28;20048;-72